<?xml version="1.0" encoding="UTF-8" standalone="no" ?>
<gpx xmlns="http://www.topografix.com/GPX/1/1" xmlns:xsi="http://www.w3.org/2001/XMLSchema-instance" xsi:schemaLocation="http://www.topografix.com/GPX/1/1 http://www.topografix.com/GPX/1/1/gpx.xsd" version="1.1" creator="VisuGPX - https://www.visugpx.com">
  <metadata>
    <name>Jour 5</name>
  </metadata>
  <trk>
    <name><![CDATA[Jour 5_4]]></name>
    <trkseg>
      <trkpt lat="42.19246" lon="-1.01553">
        <ele>536.72</ele>
        <time>2021-08-03T17:23:31Z</time>
      </trkpt>
      <trkpt lat="42.19256" lon="-1.0164">
        <ele>536.59</ele>
        <time>2021-08-03T17:23:42Z</time>
      </trkpt>
      <trkpt lat="42.19278" lon="-1.01723">
        <ele>534.54</ele>
        <time>2021-08-03T17:23:51Z</time>
      </trkpt>
      <trkpt lat="42.19283" lon="-1.01738">
        <ele>533.61</ele>
        <time>2021-08-03T17:23:54Z</time>
      </trkpt>
      <trkpt lat="42.19293" lon="-1.01815">
        <ele>530.48</ele>
        <time>2021-08-03T17:24:03Z</time>
      </trkpt>
      <trkpt lat="42.19307" lon="-1.01852">
        <ele>529.21</ele>
        <time>2021-08-03T17:24:07Z</time>
      </trkpt>
      <trkpt lat="42.19329" lon="-1.01877">
        <ele>527.69</ele>
        <time>2021-08-03T17:24:15Z</time>
      </trkpt>
      <trkpt lat="42.1938" lon="-1.0192">
        <ele>527.78</ele>
        <time>2021-08-03T17:24:21Z</time>
      </trkpt>
      <trkpt lat="42.19459" lon="-1.01972">
        <ele>528.79</ele>
        <time>2021-08-03T17:24:28Z</time>
      </trkpt>
      <trkpt lat="42.19488" lon="-1.02013">
        <ele>528.97</ele>
        <time>2021-08-03T17:24:32Z</time>
      </trkpt>
      <trkpt lat="42.19513" lon="-1.02054">
        <ele>528.49</ele>
        <time>2021-08-03T17:24:37Z</time>
      </trkpt>
      <trkpt lat="42.1954" lon="-1.02095">
        <ele>527.75</ele>
        <time>2021-08-03T17:24:43Z</time>
      </trkpt>
      <trkpt lat="42.19598" lon="-1.02161">
        <ele>529.3</ele>
        <time>2021-08-03T17:24:53Z</time>
      </trkpt>
      <trkpt lat="42.19605" lon="-1.02165">
        <ele>529.66</ele>
        <time>2021-08-03T17:24:55Z</time>
      </trkpt>
      <trkpt lat="42.19629" lon="-1.02167">
        <ele>530.19</ele>
        <time>2021-08-03T17:24:59Z</time>
      </trkpt>
      <trkpt lat="42.19679" lon="-1.02172">
        <ele>528.83</ele>
        <time>2021-08-03T17:25:07Z</time>
      </trkpt>
      <trkpt lat="42.19683" lon="-1.02182">
        <ele>528.04</ele>
        <time>2021-08-03T17:25:09Z</time>
      </trkpt>
      <trkpt lat="42.19688" lon="-1.0219">
        <ele>527.25</ele>
        <time>2021-08-03T17:25:11Z</time>
      </trkpt>
      <trkpt lat="42.19695" lon="-1.02227">
        <ele>525.61</ele>
        <time>2021-08-03T17:25:15Z</time>
      </trkpt>
      <trkpt lat="42.19705" lon="-1.02267">
        <ele>524.96</ele>
        <time>2021-08-03T17:25:18Z</time>
      </trkpt>
      <trkpt lat="42.19734" lon="-1.02301">
        <ele>524.23</ele>
        <time>2021-08-03T17:25:22Z</time>
      </trkpt>
      <trkpt lat="42.19756" lon="-1.02325">
        <ele>524</ele>
        <time>2021-08-03T17:25:26Z</time>
      </trkpt>
      <trkpt lat="42.19797" lon="-1.02384">
        <ele>526.68</ele>
        <time>2021-08-03T17:25:33Z</time>
      </trkpt>
      <trkpt lat="42.19836" lon="-1.0245">
        <ele>529.35</ele>
        <time>2021-08-03T17:25:39Z</time>
      </trkpt>
      <trkpt lat="42.19868" lon="-1.02527">
        <ele>531.3</ele>
        <time>2021-08-03T17:25:44Z</time>
      </trkpt>
      <trkpt lat="42.1988" lon="-1.02587">
        <ele>532.06</ele>
        <time>2021-08-03T17:25:48Z</time>
      </trkpt>
      <trkpt lat="42.19935" lon="-1.02622">
        <ele>533.09</ele>
        <time>2021-08-03T17:25:55Z</time>
      </trkpt>
      <trkpt lat="42.1995" lon="-1.02641">
        <ele>534.39</ele>
        <time>2021-08-03T17:25:58Z</time>
      </trkpt>
      <trkpt lat="42.19972" lon="-1.02677">
        <ele>535.98</ele>
        <time>2021-08-03T17:26:03Z</time>
      </trkpt>
      <trkpt lat="42.20018" lon="-1.02711">
        <ele>537.68</ele>
        <time>2021-08-03T17:26:10Z</time>
      </trkpt>
      <trkpt lat="42.20048" lon="-1.02769">
        <ele>539.14</ele>
        <time>2021-08-03T17:26:19Z</time>
      </trkpt>
      <trkpt lat="42.20067" lon="-1.0277">
        <ele>539.68</ele>
        <time>2021-08-03T17:26:24Z</time>
      </trkpt>
      <trkpt lat="42.20111" lon="-1.02783">
        <ele>540.74</ele>
        <time>2021-08-03T17:26:35Z</time>
      </trkpt>
      <trkpt lat="42.20151" lon="-1.02802">
        <ele>541.97</ele>
        <time>2021-08-03T17:26:47Z</time>
      </trkpt>
      <trkpt lat="42.20185" lon="-1.02803">
        <ele>543.61</ele>
        <time>2021-08-03T17:27:00Z</time>
      </trkpt>
      <trkpt lat="42.20217" lon="-1.02831">
        <ele>545.38</ele>
        <time>2021-08-03T17:27:14Z</time>
      </trkpt>
      <trkpt lat="42.20242" lon="-1.02861">
        <ele>548.41</ele>
        <time>2021-08-03T17:27:26Z</time>
      </trkpt>
      <trkpt lat="42.20266" lon="-1.02879">
        <ele>551.54</ele>
        <time>2021-08-03T17:27:34Z</time>
      </trkpt>
      <trkpt lat="42.20274" lon="-1.02906">
        <ele>554.87</ele>
        <time>2021-08-03T17:27:42Z</time>
      </trkpt>
      <trkpt lat="42.20268" lon="-1.02924">
        <ele>556.77</ele>
        <time>2021-08-03T17:27:47Z</time>
      </trkpt>
      <trkpt lat="42.20232" lon="-1.02957">
        <ele>560.25</ele>
        <time>2021-08-03T17:27:57Z</time>
      </trkpt>
      <trkpt lat="42.20216" lon="-1.02984">
        <ele>561.88</ele>
        <time>2021-08-03T17:28:03Z</time>
      </trkpt>
      <trkpt lat="42.20215" lon="-1.03036">
        <ele>563.24</ele>
        <time>2021-08-03T17:28:10Z</time>
      </trkpt>
      <trkpt lat="42.20209" lon="-1.0308">
        <ele>564.76</ele>
        <time>2021-08-03T17:28:18Z</time>
      </trkpt>
      <trkpt lat="42.20207" lon="-1.03081">
        <ele>564.89</ele>
        <time>2021-08-03T17:28:19Z</time>
      </trkpt>
      <trkpt lat="42.20191" lon="-1.03097">
        <ele>565.62</ele>
        <time>2021-08-03T17:28:25Z</time>
      </trkpt>
      <trkpt lat="42.20149" lon="-1.03157">
        <ele>564.58</ele>
        <time>2021-08-03T17:28:35Z</time>
      </trkpt>
      <trkpt lat="42.2013" lon="-1.03237">
        <ele>564.18</ele>
        <time>2021-08-03T17:28:44Z</time>
      </trkpt>
      <trkpt lat="42.2013" lon="-1.03287">
        <ele>563.66</ele>
        <time>2021-08-03T17:28:49Z</time>
      </trkpt>
      <trkpt lat="42.20157" lon="-1.03324">
        <ele>563.14</ele>
        <time>2021-08-03T17:28:55Z</time>
      </trkpt>
      <trkpt lat="42.20213" lon="-1.03344">
        <ele>563.32</ele>
        <time>2021-08-03T17:29:02Z</time>
      </trkpt>
      <trkpt lat="42.20232" lon="-1.03345">
        <ele>563.34</ele>
        <time>2021-08-03T17:29:05Z</time>
      </trkpt>
      <trkpt lat="42.20258" lon="-1.03359">
        <ele>562.32</ele>
        <time>2021-08-03T17:29:10Z</time>
      </trkpt>
      <trkpt lat="42.20302" lon="-1.034">
        <ele>558.97</ele>
        <time>2021-08-03T17:29:19Z</time>
      </trkpt>
      <trkpt lat="42.20308" lon="-1.03402">
        <ele>558.66</ele>
        <time>2021-08-03T17:29:20Z</time>
      </trkpt>
      <trkpt lat="42.20327" lon="-1.03406">
        <ele>558.11</ele>
        <time>2021-08-03T17:29:23Z</time>
      </trkpt>
      <trkpt lat="42.20346" lon="-1.03414">
        <ele>557.49</ele>
        <time>2021-08-03T17:29:26Z</time>
      </trkpt>
      <trkpt lat="42.20368" lon="-1.0342">
        <ele>556.8</ele>
        <time>2021-08-03T17:29:29Z</time>
      </trkpt>
      <trkpt lat="42.20398" lon="-1.03462">
        <ele>555.97</ele>
        <time>2021-08-03T17:29:36Z</time>
      </trkpt>
      <trkpt lat="42.20373" lon="-1.03478">
        <ele>553.68</ele>
        <time>2021-08-03T17:29:42Z</time>
      </trkpt>
      <trkpt lat="42.20326" lon="-1.03466">
        <ele>550.43</ele>
        <time>2021-08-03T17:29:48Z</time>
      </trkpt>
      <trkpt lat="42.20301" lon="-1.03484">
        <ele>547.9</ele>
        <time>2021-08-03T17:29:53Z</time>
      </trkpt>
      <trkpt lat="42.20276" lon="-1.0353">
        <ele>545.64</ele>
        <time>2021-08-03T17:29:58Z</time>
      </trkpt>
      <trkpt lat="42.2024" lon="-1.03575">
        <ele>541.83</ele>
        <time>2021-08-03T17:30:04Z</time>
      </trkpt>
      <trkpt lat="42.2023" lon="-1.03586">
        <ele>540.39</ele>
        <time>2021-08-03T17:30:06Z</time>
      </trkpt>
      <trkpt lat="42.20238" lon="-1.03616">
        <ele>536.97</ele>
        <time>2021-08-03T17:30:11Z</time>
      </trkpt>
      <trkpt lat="42.20246" lon="-1.03617">
        <ele>536.27</ele>
        <time>2021-08-03T17:30:12Z</time>
      </trkpt>
      <trkpt lat="42.20314" lon="-1.03629">
        <ele>532.71</ele>
        <time>2021-08-03T17:30:20Z</time>
      </trkpt>
      <trkpt lat="42.20332" lon="-1.03642">
        <ele>531.19</ele>
        <time>2021-08-03T17:30:24Z</time>
      </trkpt>
      <trkpt lat="42.20336" lon="-1.03648">
        <ele>527.42</ele>
        <time>2021-08-03T17:30:30Z</time>
      </trkpt>
      <trkpt lat="42.20342" lon="-1.03658">
        <ele>525.68</ele>
        <time>2021-08-03T17:30:36Z</time>
      </trkpt>
      <trkpt lat="42.20352" lon="-1.03689">
        <ele>524.79</ele>
        <time>2021-08-03T17:30:40Z</time>
      </trkpt>
      <trkpt lat="42.20361" lon="-1.03726">
        <ele>523.61</ele>
        <time>2021-08-03T17:30:43Z</time>
      </trkpt>
      <trkpt lat="42.2038" lon="-1.0377">
        <ele>522.56</ele>
        <time>2021-08-03T17:30:46Z</time>
      </trkpt>
      <trkpt lat="42.20378" lon="-1.03857">
        <ele>519.42</ele>
        <time>2021-08-03T17:30:52Z</time>
      </trkpt>
      <trkpt lat="42.20371" lon="-1.0388">
        <ele>518.74</ele>
        <time>2021-08-03T17:30:54Z</time>
      </trkpt>
      <trkpt lat="42.20376" lon="-1.03908">
        <ele>516.65</ele>
        <time>2021-08-03T17:30:59Z</time>
      </trkpt>
      <trkpt lat="42.20387" lon="-1.03904">
        <ele>515.18</ele>
        <time>2021-08-03T17:31:03Z</time>
      </trkpt>
      <trkpt lat="42.20428" lon="-1.0389">
        <ele>512.31</ele>
        <time>2021-08-03T17:31:15Z</time>
      </trkpt>
      <trkpt lat="42.20431" lon="-1.0389">
        <ele>512.16</ele>
        <time>2021-08-03T17:31:16Z</time>
      </trkpt>
      <trkpt lat="42.20467" lon="-1.03905">
        <ele>511.12</ele>
        <time>2021-08-03T17:31:22Z</time>
      </trkpt>
      <trkpt lat="42.2049" lon="-1.03925">
        <ele>509.99</ele>
        <time>2021-08-03T17:31:26Z</time>
      </trkpt>
      <trkpt lat="42.20554" lon="-1.03956">
        <ele>507.23</ele>
        <time>2021-08-03T17:31:34Z</time>
      </trkpt>
      <trkpt lat="42.20628" lon="-1.03989">
        <ele>505.76</ele>
        <time>2021-08-03T17:31:43Z</time>
      </trkpt>
      <trkpt lat="42.20675" lon="-1.04002">
        <ele>505.67</ele>
        <time>2021-08-03T17:31:47Z</time>
      </trkpt>
      <trkpt lat="42.20716" lon="-1.03991">
        <ele>505.47</ele>
        <time>2021-08-03T17:31:51Z</time>
      </trkpt>
      <trkpt lat="42.20775" lon="-1.03954">
        <ele>505.06</ele>
        <time>2021-08-03T17:31:57Z</time>
      </trkpt>
      <trkpt lat="42.20801" lon="-1.03928">
        <ele>505.21</ele>
        <time>2021-08-03T17:32:00Z</time>
      </trkpt>
      <trkpt lat="42.20852" lon="-1.03901">
        <ele>506.45</ele>
        <time>2021-08-03T17:32:05Z</time>
      </trkpt>
      <trkpt lat="42.20968" lon="-1.03876">
        <ele>508.35</ele>
        <time>2021-08-03T17:32:16Z</time>
      </trkpt>
      <trkpt lat="42.2102" lon="-1.03852">
        <ele>508.7</ele>
        <time>2021-08-03T17:32:22Z</time>
      </trkpt>
      <trkpt lat="42.2104" lon="-1.03867">
        <ele>508.81</ele>
        <time>2021-08-03T17:32:27Z</time>
      </trkpt>
      <trkpt lat="42.21073" lon="-1.03911">
        <ele>508.32</ele>
        <time>2021-08-03T17:32:32Z</time>
      </trkpt>
      <trkpt lat="42.21097" lon="-1.03952">
        <ele>506.42</ele>
        <time>2021-08-03T17:32:37Z</time>
      </trkpt>
      <trkpt lat="42.2111" lon="-1.03993">
        <ele>505.46</ele>
        <time>2021-08-03T17:32:40Z</time>
      </trkpt>
      <trkpt lat="42.21123" lon="-1.04038">
        <ele>504.74</ele>
        <time>2021-08-03T17:32:43Z</time>
      </trkpt>
      <trkpt lat="42.2117" lon="-1.04088">
        <ele>505.13</ele>
        <time>2021-08-03T17:32:48Z</time>
      </trkpt>
      <trkpt lat="42.21203" lon="-1.04101">
        <ele>506.29</ele>
        <time>2021-08-03T17:32:51Z</time>
      </trkpt>
      <trkpt lat="42.21233" lon="-1.04138">
        <ele>509.72</ele>
        <time>2021-08-03T17:32:56Z</time>
      </trkpt>
      <trkpt lat="42.21249" lon="-1.04201">
        <ele>514.02</ele>
        <time>2021-08-03T17:33:02Z</time>
      </trkpt>
      <trkpt lat="42.213" lon="-1.04265">
        <ele>517.81</ele>
        <time>2021-08-03T17:33:08Z</time>
      </trkpt>
      <trkpt lat="42.21325" lon="-1.04276">
        <ele>519.01</ele>
        <time>2021-08-03T17:33:10Z</time>
      </trkpt>
      <trkpt lat="42.21359" lon="-1.0429">
        <ele>520.19</ele>
        <time>2021-08-03T17:33:13Z</time>
      </trkpt>
      <trkpt lat="42.2141" lon="-1.0437">
        <ele>522.15</ele>
        <time>2021-08-03T17:33:20Z</time>
      </trkpt>
      <trkpt lat="42.21472" lon="-1.04408">
        <ele>523.49</ele>
        <time>2021-08-03T17:33:26Z</time>
      </trkpt>
      <trkpt lat="42.21488" lon="-1.04422">
        <ele>523.87</ele>
        <time>2021-08-03T17:33:28Z</time>
      </trkpt>
      <trkpt lat="42.21522" lon="-1.04467">
        <ele>524.61</ele>
        <time>2021-08-03T17:33:32Z</time>
      </trkpt>
      <trkpt lat="42.21568" lon="-1.04485">
        <ele>525.82</ele>
        <time>2021-08-03T17:33:36Z</time>
      </trkpt>
      <trkpt lat="42.2163" lon="-1.04516">
        <ele>528.03</ele>
        <time>2021-08-03T17:33:42Z</time>
      </trkpt>
      <trkpt lat="42.21643" lon="-1.04568">
        <ele>529.52</ele>
        <time>2021-08-03T17:33:47Z</time>
      </trkpt>
      <trkpt lat="42.21636" lon="-1.04643">
        <ele>532.09</ele>
        <time>2021-08-03T17:33:53Z</time>
      </trkpt>
      <trkpt lat="42.21655" lon="-1.04762">
        <ele>535.9</ele>
        <time>2021-08-03T17:34:01Z</time>
      </trkpt>
      <trkpt lat="42.21708" lon="-1.04876">
        <ele>537.72</ele>
        <time>2021-08-03T17:34:09Z</time>
      </trkpt>
      <trkpt lat="42.2175" lon="-1.04955">
        <ele>539.78</ele>
        <time>2021-08-03T17:34:16Z</time>
      </trkpt>
      <trkpt lat="42.21759" lon="-1.05012">
        <ele>541.49</ele>
        <time>2021-08-03T17:34:21Z</time>
      </trkpt>
      <trkpt lat="42.21774" lon="-1.05044">
        <ele>542.66</ele>
        <time>2021-08-03T17:34:24Z</time>
      </trkpt>
      <trkpt lat="42.21792" lon="-1.05078">
        <ele>544.75</ele>
        <time>2021-08-03T17:34:27Z</time>
      </trkpt>
      <trkpt lat="42.21839" lon="-1.05122">
        <ele>548.96</ele>
        <time>2021-08-03T17:34:32Z</time>
      </trkpt>
      <trkpt lat="42.21872" lon="-1.0514">
        <ele>552.99</ele>
        <time>2021-08-03T17:34:36Z</time>
      </trkpt>
      <trkpt lat="42.21875" lon="-1.05143">
        <ele>553.94</ele>
        <time>2021-08-03T17:34:37Z</time>
      </trkpt>
      <trkpt lat="42.21885" lon="-1.0517">
        <ele>556.95</ele>
        <time>2021-08-03T17:34:41Z</time>
      </trkpt>
      <trkpt lat="42.21913" lon="-1.05233">
        <ele>560.57</ele>
        <time>2021-08-03T17:34:47Z</time>
      </trkpt>
      <trkpt lat="42.21927" lon="-1.05294">
        <ele>563.86</ele>
        <time>2021-08-03T17:34:52Z</time>
      </trkpt>
      <trkpt lat="42.21953" lon="-1.05366">
        <ele>568.32</ele>
        <time>2021-08-03T17:34:58Z</time>
      </trkpt>
      <trkpt lat="42.21994" lon="-1.05413">
        <ele>572.15</ele>
        <time>2021-08-03T17:35:03Z</time>
      </trkpt>
      <trkpt lat="42.22043" lon="-1.05467">
        <ele>576.28</ele>
        <time>2021-08-03T17:35:08Z</time>
      </trkpt>
      <trkpt lat="42.22086" lon="-1.05507">
        <ele>580</ele>
        <time>2021-08-03T17:35:12Z</time>
      </trkpt>
      <trkpt lat="42.2211" lon="-1.05552">
        <ele>583.65</ele>
        <time>2021-08-03T17:35:16Z</time>
      </trkpt>
      <trkpt lat="42.22142" lon="-1.05617">
        <ele>587.9</ele>
        <time>2021-08-03T17:35:21Z</time>
      </trkpt>
      <trkpt lat="42.22147" lon="-1.05631">
        <ele>589.8</ele>
        <time>2021-08-03T17:35:22Z</time>
      </trkpt>
      <trkpt lat="42.22155" lon="-1.05659">
        <ele>591.74</ele>
        <time>2021-08-03T17:35:24Z</time>
      </trkpt>
      <trkpt lat="42.22209" lon="-1.05689">
        <ele>595.63</ele>
        <time>2021-08-03T17:35:30Z</time>
      </trkpt>
      <trkpt lat="42.22219" lon="-1.05695">
        <ele>596.28</ele>
        <time>2021-08-03T17:35:31Z</time>
      </trkpt>
      <trkpt lat="42.22265" lon="-1.05718">
        <ele>598.56</ele>
        <time>2021-08-03T17:35:35Z</time>
      </trkpt>
      <trkpt lat="42.22315" lon="-1.05778">
        <ele>601.16</ele>
        <time>2021-08-03T17:35:41Z</time>
      </trkpt>
      <trkpt lat="42.22319" lon="-1.05791">
        <ele>601.75</ele>
        <time>2021-08-03T17:35:42Z</time>
      </trkpt>
      <trkpt lat="42.22325" lon="-1.05814">
        <ele>603.05</ele>
        <time>2021-08-03T17:35:44Z</time>
      </trkpt>
      <trkpt lat="42.22321" lon="-1.05874">
        <ele>606.18</ele>
        <time>2021-08-03T17:35:49Z</time>
      </trkpt>
      <trkpt lat="42.22312" lon="-1.05898">
        <ele>606.57</ele>
        <time>2021-08-03T17:35:51Z</time>
      </trkpt>
      <trkpt lat="42.22309" lon="-1.05992">
        <ele>605.29</ele>
        <time>2021-08-03T17:35:57Z</time>
      </trkpt>
      <trkpt lat="42.22316" lon="-1.06023">
        <ele>603.98</ele>
        <time>2021-08-03T17:35:59Z</time>
      </trkpt>
      <trkpt lat="42.22311" lon="-1.06109">
        <ele>599.96</ele>
        <time>2021-08-03T17:36:04Z</time>
      </trkpt>
      <trkpt lat="42.22305" lon="-1.06124">
        <ele>599.17</ele>
        <time>2021-08-03T17:36:05Z</time>
      </trkpt>
      <trkpt lat="42.22278" lon="-1.062">
        <ele>595.03</ele>
        <time>2021-08-03T17:36:10Z</time>
      </trkpt>
      <trkpt lat="42.22279" lon="-1.06252">
        <ele>590.41</ele>
        <time>2021-08-03T17:36:14Z</time>
      </trkpt>
      <trkpt lat="42.2229" lon="-1.06319">
        <ele>586.24</ele>
        <time>2021-08-03T17:36:18Z</time>
      </trkpt>
      <trkpt lat="42.22299" lon="-1.06371">
        <ele>582.86</ele>
        <time>2021-08-03T17:36:21Z</time>
      </trkpt>
      <trkpt lat="42.22307" lon="-1.06424">
        <ele>579.38</ele>
        <time>2021-08-03T17:36:24Z</time>
      </trkpt>
      <trkpt lat="42.22333" lon="-1.06487">
        <ele>575.17</ele>
        <time>2021-08-03T17:36:28Z</time>
      </trkpt>
      <trkpt lat="42.2236" lon="-1.06535">
        <ele>571.53</ele>
        <time>2021-08-03T17:36:32Z</time>
      </trkpt>
      <trkpt lat="42.22402" lon="-1.066">
        <ele>568.45</ele>
        <time>2021-08-03T17:36:38Z</time>
      </trkpt>
      <trkpt lat="42.22401" lon="-1.06665">
        <ele>565.96</ele>
        <time>2021-08-03T17:36:43Z</time>
      </trkpt>
      <trkpt lat="42.22407" lon="-1.06697">
        <ele>564.04</ele>
        <time>2021-08-03T17:36:46Z</time>
      </trkpt>
      <trkpt lat="42.22431" lon="-1.06773">
        <ele>560.57</ele>
        <time>2021-08-03T17:36:51Z</time>
      </trkpt>
      <trkpt lat="42.22448" lon="-1.06821">
        <ele>558.54</ele>
        <time>2021-08-03T17:36:54Z</time>
      </trkpt>
      <trkpt lat="42.22456" lon="-1.06868">
        <ele>556.7</ele>
        <time>2021-08-03T17:36:57Z</time>
      </trkpt>
      <trkpt lat="42.22437" lon="-1.0692">
        <ele>553.14</ele>
        <time>2021-08-03T17:37:02Z</time>
      </trkpt>
      <trkpt lat="42.22416" lon="-1.06999">
        <ele>550.84</ele>
        <time>2021-08-03T17:37:09Z</time>
      </trkpt>
      <trkpt lat="42.22446" lon="-1.07074">
        <ele>550.87</ele>
        <time>2021-08-03T17:37:14Z</time>
      </trkpt>
      <trkpt lat="42.22464" lon="-1.07159">
        <ele>551.3</ele>
        <time>2021-08-03T17:37:20Z</time>
      </trkpt>
      <trkpt lat="42.22474" lon="-1.07167">
        <ele>551.22</ele>
        <time>2021-08-03T17:37:21Z</time>
      </trkpt>
      <trkpt lat="42.22498" lon="-1.07196">
        <ele>550.8</ele>
        <time>2021-08-03T17:37:24Z</time>
      </trkpt>
      <trkpt lat="42.22501" lon="-1.07212">
        <ele>550.69</ele>
        <time>2021-08-03T17:37:25Z</time>
      </trkpt>
      <trkpt lat="42.225" lon="-1.0723">
        <ele>550.61</ele>
        <time>2021-08-03T17:37:26Z</time>
      </trkpt>
      <trkpt lat="42.22482" lon="-1.07292">
        <ele>550.09</ele>
        <time>2021-08-03T17:37:31Z</time>
      </trkpt>
      <trkpt lat="42.22474" lon="-1.0736">
        <ele>549.51</ele>
        <time>2021-08-03T17:37:37Z</time>
      </trkpt>
      <trkpt lat="42.22481" lon="-1.07371">
        <ele>549.54</ele>
        <time>2021-08-03T17:37:38Z</time>
      </trkpt>
      <trkpt lat="42.22508" lon="-1.07408">
        <ele>549.82</ele>
        <time>2021-08-03T17:37:41Z</time>
      </trkpt>
      <trkpt lat="42.22538" lon="-1.07475">
        <ele>551.08</ele>
        <time>2021-08-03T17:37:45Z</time>
      </trkpt>
      <trkpt lat="42.22573" lon="-1.07556">
        <ele>552.49</ele>
        <time>2021-08-03T17:37:51Z</time>
      </trkpt>
      <trkpt lat="42.22593" lon="-1.07602">
        <ele>552.9</ele>
        <time>2021-08-03T17:37:55Z</time>
      </trkpt>
      <trkpt lat="42.22609" lon="-1.07667">
        <ele>554</ele>
        <time>2021-08-03T17:38:01Z</time>
      </trkpt>
      <trkpt lat="42.22601" lon="-1.07677">
        <ele>554.15</ele>
        <time>2021-08-03T17:38:02Z</time>
      </trkpt>
      <trkpt lat="42.22582" lon="-1.07695">
        <ele>554.55</ele>
        <time>2021-08-03T17:38:04Z</time>
      </trkpt>
      <trkpt lat="42.22528" lon="-1.07725">
        <ele>555.42</ele>
        <time>2021-08-03T17:38:09Z</time>
      </trkpt>
      <trkpt lat="42.22487" lon="-1.07764">
        <ele>555.85</ele>
        <time>2021-08-03T17:38:13Z</time>
      </trkpt>
      <trkpt lat="42.22382" lon="-1.07887">
        <ele>557.67</ele>
        <time>2021-08-03T17:38:24Z</time>
      </trkpt>
      <trkpt lat="42.22325" lon="-1.07911">
        <ele>559.07</ele>
        <time>2021-08-03T17:38:29Z</time>
      </trkpt>
      <trkpt lat="42.22302" lon="-1.07911">
        <ele>559.86</ele>
        <time>2021-08-03T17:38:31Z</time>
      </trkpt>
      <trkpt lat="42.2225" lon="-1.07956">
        <ele>563.07</ele>
        <time>2021-08-03T17:38:37Z</time>
      </trkpt>
      <trkpt lat="42.2225" lon="-1.08006">
        <ele>563.59</ele>
        <time>2021-08-03T17:38:41Z</time>
      </trkpt>
      <trkpt lat="42.22266" lon="-1.08076">
        <ele>562.08</ele>
        <time>2021-08-03T17:38:45Z</time>
      </trkpt>
      <trkpt lat="42.22282" lon="-1.08128">
        <ele>560.69</ele>
        <time>2021-08-03T17:38:48Z</time>
      </trkpt>
      <trkpt lat="42.22295" lon="-1.08209">
        <ele>559.32</ele>
        <time>2021-08-03T17:38:52Z</time>
      </trkpt>
      <trkpt lat="42.22322" lon="-1.08327">
        <ele>558.12</ele>
        <time>2021-08-03T17:38:58Z</time>
      </trkpt>
      <trkpt lat="42.22317" lon="-1.08414">
        <ele>556.17</ele>
        <time>2021-08-03T17:39:03Z</time>
      </trkpt>
      <trkpt lat="42.22315" lon="-1.08514">
        <ele>554.25</ele>
        <time>2021-08-03T17:39:09Z</time>
      </trkpt>
      <trkpt lat="42.22328" lon="-1.08598">
        <ele>552.81</ele>
        <time>2021-08-03T17:39:15Z</time>
      </trkpt>
      <trkpt lat="42.22294" lon="-1.08675">
        <ele>549.16</ele>
        <time>2021-08-03T17:39:21Z</time>
      </trkpt>
      <trkpt lat="42.22285" lon="-1.08744">
        <ele>545.47</ele>
        <time>2021-08-03T17:39:26Z</time>
      </trkpt>
      <trkpt lat="42.22298" lon="-1.0879">
        <ele>543.6</ele>
        <time>2021-08-03T17:39:29Z</time>
      </trkpt>
      <trkpt lat="42.22326" lon="-1.08924">
        <ele>539.99</ele>
        <time>2021-08-03T17:39:36Z</time>
      </trkpt>
      <trkpt lat="42.22377" lon="-1.09067">
        <ele>537.42</ele>
        <time>2021-08-03T17:39:44Z</time>
      </trkpt>
      <trkpt lat="42.22389" lon="-1.09117">
        <ele>537.27</ele>
        <time>2021-08-03T17:39:47Z</time>
      </trkpt>
      <trkpt lat="42.22394" lon="-1.09207">
        <ele>536.65</ele>
        <time>2021-08-03T17:39:52Z</time>
      </trkpt>
      <trkpt lat="42.22415" lon="-1.0926">
        <ele>533.56</ele>
        <time>2021-08-03T17:39:58Z</time>
      </trkpt>
      <trkpt lat="42.22435" lon="-1.09294">
        <ele>530.31</ele>
        <time>2021-08-03T17:40:05Z</time>
      </trkpt>
      <trkpt lat="42.22442" lon="-1.09327">
        <ele>529.69</ele>
        <time>2021-08-03T17:40:09Z</time>
      </trkpt>
      <trkpt lat="42.22417" lon="-1.09395">
        <ele>530.02</ele>
        <time>2021-08-03T17:40:18Z</time>
      </trkpt>
      <trkpt lat="42.22405" lon="-1.09404">
        <ele>530.08</ele>
        <time>2021-08-03T17:40:20Z</time>
      </trkpt>
      <trkpt lat="42.22309" lon="-1.09465">
        <ele>528.49</ele>
        <time>2021-08-03T17:40:34Z</time>
      </trkpt>
      <trkpt lat="42.22245" lon="-1.0953">
        <ele>525.62</ele>
        <time>2021-08-03T17:40:48Z</time>
      </trkpt>
      <trkpt lat="42.22218" lon="-1.09565">
        <ele>524.04</ele>
        <time>2021-08-03T17:40:54Z</time>
      </trkpt>
      <trkpt lat="42.22211" lon="-1.09583">
        <ele>522.8</ele>
        <time>2021-08-03T17:40:58Z</time>
      </trkpt>
      <trkpt lat="42.22211" lon="-1.0959">
        <ele>521.52</ele>
        <time>2021-08-03T17:41:02Z</time>
      </trkpt>
      <trkpt lat="42.22212" lon="-1.09594">
        <ele>519.59</ele>
        <time>2021-08-03T17:41:17Z</time>
      </trkpt>
      <trkpt lat="42.22217" lon="-1.09605">
        <ele>519.26</ele>
        <time>2021-08-03T17:41:50Z</time>
      </trkpt>
      <trkpt lat="42.2224" lon="-1.09679">
        <ele>519.81</ele>
        <time>2021-08-03T17:41:57Z</time>
      </trkpt>
      <trkpt lat="42.22278" lon="-1.09711">
        <ele>520.19</ele>
        <time>2021-08-03T17:42:02Z</time>
      </trkpt>
      <trkpt lat="42.22362" lon="-1.09739">
        <ele>522.05</ele>
        <time>2021-08-03T17:42:13Z</time>
      </trkpt>
      <trkpt lat="42.22384" lon="-1.09753">
        <ele>522.35</ele>
        <time>2021-08-03T17:42:16Z</time>
      </trkpt>
      <trkpt lat="42.22443" lon="-1.0978">
        <ele>521.33</ele>
        <time>2021-08-03T17:42:26Z</time>
      </trkpt>
      <trkpt lat="42.22465" lon="-1.09767">
        <ele>520.24</ele>
        <time>2021-08-03T17:42:32Z</time>
      </trkpt>
      <trkpt lat="42.22502" lon="-1.09707">
        <ele>520.14</ele>
        <time>2021-08-03T17:42:43Z</time>
      </trkpt>
      <trkpt lat="42.2251" lon="-1.09702">
        <ele>520.46</ele>
        <time>2021-08-03T17:42:46Z</time>
      </trkpt>
      <trkpt lat="42.22517" lon="-1.097">
        <ele>520.82</ele>
        <time>2021-08-03T17:43:01Z</time>
      </trkpt>
      <trkpt lat="42.22518" lon="-1.097">
        <ele>520.84</ele>
        <time>2021-08-03T17:43:10Z</time>
      </trkpt>
      <trkpt lat="42.22519" lon="-1.09664">
        <ele>520.96</ele>
        <time>2021-08-03T17:43:18Z</time>
      </trkpt>
      <trkpt lat="42.22522" lon="-1.09617">
        <ele>519.74</ele>
        <time>2021-08-03T17:43:25Z</time>
      </trkpt>
      <trkpt lat="42.2252" lon="-1.09589">
        <ele>516.53</ele>
        <time>2021-08-03T17:43:35Z</time>
      </trkpt>
      <trkpt lat="42.22526" lon="-1.09595">
        <ele>515.24</ele>
        <time>2021-08-03T17:43:46Z</time>
      </trkpt>
      <trkpt lat="42.22529" lon="-1.09599">
        <ele>515.23</ele>
        <time>2021-08-03T17:43:51Z</time>
      </trkpt>
      <trkpt lat="42.2253" lon="-1.09594">
        <ele>515.28</ele>
        <time>2021-08-03T17:44:06Z</time>
      </trkpt>
      <trkpt lat="42.2253" lon="-1.09594">
        <ele>515.48</ele>
        <time>2021-08-03T17:44:24Z</time>
      </trkpt>
      <trkpt lat="42.22528" lon="-1.09579">
        <ele>514.26</ele>
        <time>2021-08-03T18:06:25Z</time>
      </trkpt>
      <trkpt lat="42.22526" lon="-1.09569">
        <ele>514.26</ele>
        <time>2021-08-03T18:06:27Z</time>
      </trkpt>
      <trkpt lat="42.22518" lon="-1.09518">
        <ele>513.42</ele>
        <time>2021-08-03T18:06:32Z</time>
      </trkpt>
      <trkpt lat="42.22539" lon="-1.09446">
        <ele>510.58</ele>
        <time>2021-08-03T18:06:39Z</time>
      </trkpt>
      <trkpt lat="42.22566" lon="-1.09433">
        <ele>509.35</ele>
        <time>2021-08-03T18:06:42Z</time>
      </trkpt>
      <trkpt lat="42.22587" lon="-1.09431">
        <ele>508.92</ele>
        <time>2021-08-03T18:06:44Z</time>
      </trkpt>
      <trkpt lat="42.22676" lon="-1.09432">
        <ele>508.14</ele>
        <time>2021-08-03T18:06:54Z</time>
      </trkpt>
      <trkpt lat="42.22682" lon="-1.09433">
        <ele>508.2</ele>
        <time>2021-08-03T18:06:55Z</time>
      </trkpt>
      <trkpt lat="42.22703" lon="-1.09452">
        <ele>508.64</ele>
        <time>2021-08-03T18:07:00Z</time>
      </trkpt>
      <trkpt lat="42.2273" lon="-1.09475">
        <ele>509.49</ele>
        <time>2021-08-03T18:07:06Z</time>
      </trkpt>
      <trkpt lat="42.22747" lon="-1.09479">
        <ele>510.05</ele>
        <time>2021-08-03T18:07:08Z</time>
      </trkpt>
      <trkpt lat="42.2279" lon="-1.09506">
        <ele>511.56</ele>
        <time>2021-08-03T18:07:13Z</time>
      </trkpt>
      <trkpt lat="42.22845" lon="-1.09575">
        <ele>512.99</ele>
        <time>2021-08-03T18:07:21Z</time>
      </trkpt>
      <trkpt lat="42.22855" lon="-1.09576">
        <ele>513.16</ele>
        <time>2021-08-03T18:07:22Z</time>
      </trkpt>
      <trkpt lat="42.22878" lon="-1.09575">
        <ele>513.61</ele>
        <time>2021-08-03T18:07:24Z</time>
      </trkpt>
      <trkpt lat="42.22931" lon="-1.09552">
        <ele>515.13</ele>
        <time>2021-08-03T18:07:30Z</time>
      </trkpt>
      <trkpt lat="42.22972" lon="-1.09575">
        <ele>517.61</ele>
        <time>2021-08-03T18:07:36Z</time>
      </trkpt>
      <trkpt lat="42.22975" lon="-1.09586">
        <ele>518.03</ele>
        <time>2021-08-03T18:07:37Z</time>
      </trkpt>
      <trkpt lat="42.22981" lon="-1.09611">
        <ele>519.08</ele>
        <time>2021-08-03T18:07:39Z</time>
      </trkpt>
      <trkpt lat="42.23032" lon="-1.09654">
        <ele>521.91</ele>
        <time>2021-08-03T18:07:46Z</time>
      </trkpt>
      <trkpt lat="42.23059" lon="-1.0964">
        <ele>522.7</ele>
        <time>2021-08-03T18:07:50Z</time>
      </trkpt>
      <trkpt lat="42.23067" lon="-1.09639">
        <ele>523.17</ele>
        <time>2021-08-03T18:07:57Z</time>
      </trkpt>
      <trkpt lat="42.23097" lon="-1.09624">
        <ele>523.73</ele>
        <time>2021-08-03T18:08:04Z</time>
      </trkpt>
      <trkpt lat="42.23135" lon="-1.09598">
        <ele>524.19</ele>
        <time>2021-08-03T18:08:08Z</time>
      </trkpt>
      <trkpt lat="42.23201" lon="-1.09613">
        <ele>524.89</ele>
        <time>2021-08-03T18:08:14Z</time>
      </trkpt>
      <trkpt lat="42.2321" lon="-1.09623">
        <ele>524.89</ele>
        <time>2021-08-03T18:08:15Z</time>
      </trkpt>
      <trkpt lat="42.23227" lon="-1.0964">
        <ele>524.85</ele>
        <time>2021-08-03T18:08:17Z</time>
      </trkpt>
      <trkpt lat="42.23254" lon="-1.09661">
        <ele>524.66</ele>
        <time>2021-08-03T18:08:20Z</time>
      </trkpt>
      <trkpt lat="42.23287" lon="-1.09721">
        <ele>523.81</ele>
        <time>2021-08-03T18:08:26Z</time>
      </trkpt>
      <trkpt lat="42.23325" lon="-1.09757">
        <ele>522.75</ele>
        <time>2021-08-03T18:08:31Z</time>
      </trkpt>
      <trkpt lat="42.23324" lon="-1.09792">
        <ele>521.4</ele>
        <time>2021-08-03T18:08:35Z</time>
      </trkpt>
      <trkpt lat="42.23306" lon="-1.09857">
        <ele>519.05</ele>
        <time>2021-08-03T18:08:40Z</time>
      </trkpt>
      <trkpt lat="42.23315" lon="-1.09888">
        <ele>517.8</ele>
        <time>2021-08-03T18:08:42Z</time>
      </trkpt>
      <trkpt lat="42.2336" lon="-1.09981">
        <ele>514.01</ele>
        <time>2021-08-03T18:08:49Z</time>
      </trkpt>
      <trkpt lat="42.23369" lon="-1.10037">
        <ele>512.95</ele>
        <time>2021-08-03T18:08:53Z</time>
      </trkpt>
      <trkpt lat="42.23369" lon="-1.10082">
        <ele>513.16</ele>
        <time>2021-08-03T18:08:56Z</time>
      </trkpt>
      <trkpt lat="42.23383" lon="-1.10135">
        <ele>514.04</ele>
        <time>2021-08-03T18:09:00Z</time>
      </trkpt>
      <trkpt lat="42.23395" lon="-1.10179">
        <ele>515.59</ele>
        <time>2021-08-03T18:09:04Z</time>
      </trkpt>
      <trkpt lat="42.23406" lon="-1.10201">
        <ele>516.63</ele>
        <time>2021-08-03T18:09:11Z</time>
      </trkpt>
      <trkpt lat="42.23413" lon="-1.10202">
        <ele>516.41</ele>
        <time>2021-08-03T18:09:30Z</time>
      </trkpt>
      <trkpt lat="42.23466" lon="-1.10217">
        <ele>517.14</ele>
        <time>2021-08-03T18:09:37Z</time>
      </trkpt>
      <trkpt lat="42.23496" lon="-1.1023">
        <ele>518.03</ele>
        <time>2021-08-03T18:09:40Z</time>
      </trkpt>
      <trkpt lat="42.23565" lon="-1.10262">
        <ele>519.53</ele>
        <time>2021-08-03T18:09:47Z</time>
      </trkpt>
      <trkpt lat="42.23593" lon="-1.10292">
        <ele>520.44</ele>
        <time>2021-08-03T18:09:50Z</time>
      </trkpt>
      <trkpt lat="42.23638" lon="-1.10342">
        <ele>521.89</ele>
        <time>2021-08-03T18:09:56Z</time>
      </trkpt>
      <trkpt lat="42.23692" lon="-1.10387">
        <ele>524.01</ele>
        <time>2021-08-03T18:10:02Z</time>
      </trkpt>
      <trkpt lat="42.23741" lon="-1.10455">
        <ele>526.11</ele>
        <time>2021-08-03T18:10:08Z</time>
      </trkpt>
      <trkpt lat="42.23784" lon="-1.10498">
        <ele>527.1</ele>
        <time>2021-08-03T18:10:13Z</time>
      </trkpt>
      <trkpt lat="42.23808" lon="-1.1053">
        <ele>527.35</ele>
        <time>2021-08-03T18:10:16Z</time>
      </trkpt>
      <trkpt lat="42.23854" lon="-1.10567">
        <ele>526.54</ele>
        <time>2021-08-03T18:10:21Z</time>
      </trkpt>
      <trkpt lat="42.23885" lon="-1.10594">
        <ele>525.57</ele>
        <time>2021-08-03T18:10:24Z</time>
      </trkpt>
      <trkpt lat="42.2393" lon="-1.10654">
        <ele>525.15</ele>
        <time>2021-08-03T18:10:30Z</time>
      </trkpt>
      <trkpt lat="42.23934" lon="-1.10656">
        <ele>525.04</ele>
        <time>2021-08-03T18:10:31Z</time>
      </trkpt>
      <trkpt lat="42.23935" lon="-1.10657">
        <ele>522.5</ele>
        <time>2021-08-03T18:10:40Z</time>
      </trkpt>
      <trkpt lat="42.23936" lon="-1.10656">
        <ele>521.65</ele>
        <time>2021-08-03T18:10:45Z</time>
      </trkpt>
      <trkpt lat="42.23947" lon="-1.10646">
        <ele>521.16</ele>
        <time>2021-08-03T18:10:59Z</time>
      </trkpt>
      <trkpt lat="42.23967" lon="-1.10636">
        <ele>521.23</ele>
        <time>2021-08-03T18:11:03Z</time>
      </trkpt>
      <trkpt lat="42.23991" lon="-1.10626">
        <ele>521.26</ele>
        <time>2021-08-03T18:11:07Z</time>
      </trkpt>
      <trkpt lat="42.24" lon="-1.10618">
        <ele>521.06</ele>
        <time>2021-08-03T18:11:09Z</time>
      </trkpt>
      <trkpt lat="42.24016" lon="-1.10607">
        <ele>520.56</ele>
        <time>2021-08-03T18:11:12Z</time>
      </trkpt>
      <trkpt lat="42.24053" lon="-1.10627">
        <ele>519.52</ele>
        <time>2021-08-03T18:11:19Z</time>
      </trkpt>
      <trkpt lat="42.24053" lon="-1.10653">
        <ele>519.33</ele>
        <time>2021-08-03T18:11:21Z</time>
      </trkpt>
      <trkpt lat="42.24054" lon="-1.10784">
        <ele>517.59</ele>
        <time>2021-08-03T18:11:29Z</time>
      </trkpt>
      <trkpt lat="42.24052" lon="-1.10822">
        <ele>515.86</ele>
        <time>2021-08-03T18:11:32Z</time>
      </trkpt>
      <trkpt lat="42.2405" lon="-1.10845">
        <ele>515.11</ele>
        <time>2021-08-03T18:11:34Z</time>
      </trkpt>
      <trkpt lat="42.2405" lon="-1.10857">
        <ele>514.97</ele>
        <time>2021-08-03T18:11:35Z</time>
      </trkpt>
      <trkpt lat="42.24066" lon="-1.1098">
        <ele>516.77</ele>
        <time>2021-08-03T18:11:42Z</time>
      </trkpt>
      <trkpt lat="42.24084" lon="-1.11112">
        <ele>518.56</ele>
        <time>2021-08-03T18:11:49Z</time>
      </trkpt>
      <trkpt lat="42.24104" lon="-1.1114">
        <ele>518.12</ele>
        <time>2021-08-03T18:11:53Z</time>
      </trkpt>
      <trkpt lat="42.24124" lon="-1.11143">
        <ele>517.99</ele>
        <time>2021-08-03T18:11:55Z</time>
      </trkpt>
      <trkpt lat="42.24167" lon="-1.11164">
        <ele>518.25</ele>
        <time>2021-08-03T18:11:59Z</time>
      </trkpt>
      <trkpt lat="42.2423" lon="-1.11193">
        <ele>519.63</ele>
        <time>2021-08-03T18:12:05Z</time>
      </trkpt>
      <trkpt lat="42.24267" lon="-1.11218">
        <ele>520.57</ele>
        <time>2021-08-03T18:12:09Z</time>
      </trkpt>
      <trkpt lat="42.24303" lon="-1.11257">
        <ele>521.18</ele>
        <time>2021-08-03T18:12:14Z</time>
      </trkpt>
      <trkpt lat="42.24373" lon="-1.11318">
        <ele>522.48</ele>
        <time>2021-08-03T18:12:21Z</time>
      </trkpt>
      <trkpt lat="42.24478" lon="-1.11396">
        <ele>525.19</ele>
        <time>2021-08-03T18:12:29Z</time>
      </trkpt>
      <trkpt lat="42.24575" lon="-1.11469">
        <ele>528.24</ele>
        <time>2021-08-03T18:12:36Z</time>
      </trkpt>
      <trkpt lat="42.24692" lon="-1.11594">
        <ele>530.58</ele>
        <time>2021-08-03T18:12:45Z</time>
      </trkpt>
      <trkpt lat="42.2479" lon="-1.11677">
        <ele>533.93</ele>
        <time>2021-08-03T18:12:52Z</time>
      </trkpt>
      <trkpt lat="42.24805" lon="-1.11685">
        <ele>534.13</ele>
        <time>2021-08-03T18:12:53Z</time>
      </trkpt>
      <trkpt lat="42.24964" lon="-1.1177">
        <ele>537.24</ele>
        <time>2021-08-03T18:13:03Z</time>
      </trkpt>
      <trkpt lat="42.25043" lon="-1.11812">
        <ele>538.06</ele>
        <time>2021-08-03T18:13:09Z</time>
      </trkpt>
      <trkpt lat="42.25097" lon="-1.11814">
        <ele>538.5</ele>
        <time>2021-08-03T18:13:13Z</time>
      </trkpt>
      <trkpt lat="42.2515" lon="-1.11797">
        <ele>539.32</ele>
        <time>2021-08-03T18:13:17Z</time>
      </trkpt>
      <trkpt lat="42.25212" lon="-1.11819">
        <ele>540.44</ele>
        <time>2021-08-03T18:13:22Z</time>
      </trkpt>
      <trkpt lat="42.25236" lon="-1.1184">
        <ele>540.99</ele>
        <time>2021-08-03T18:13:24Z</time>
      </trkpt>
      <trkpt lat="42.25348" lon="-1.11881">
        <ele>543.68</ele>
        <time>2021-08-03T18:13:32Z</time>
      </trkpt>
      <trkpt lat="42.25415" lon="-1.11884">
        <ele>545.5</ele>
        <time>2021-08-03T18:13:37Z</time>
      </trkpt>
      <trkpt lat="42.25475" lon="-1.11925">
        <ele>546.33</ele>
        <time>2021-08-03T18:13:43Z</time>
      </trkpt>
      <trkpt lat="42.25533" lon="-1.11954">
        <ele>543.83</ele>
        <time>2021-08-03T18:13:49Z</time>
      </trkpt>
      <trkpt lat="42.25562" lon="-1.11946">
        <ele>543.12</ele>
        <time>2021-08-03T18:13:51Z</time>
      </trkpt>
      <trkpt lat="42.2559" lon="-1.11935">
        <ele>542.65</ele>
        <time>2021-08-03T18:13:53Z</time>
      </trkpt>
      <trkpt lat="42.257" lon="-1.1193">
        <ele>543.48</ele>
        <time>2021-08-03T18:14:01Z</time>
      </trkpt>
      <trkpt lat="42.25721" lon="-1.11928">
        <ele>544.13</ele>
        <time>2021-08-03T18:14:03Z</time>
      </trkpt>
      <trkpt lat="42.25763" lon="-1.11986">
        <ele>544.61</ele>
        <time>2021-08-03T18:14:09Z</time>
      </trkpt>
      <trkpt lat="42.25771" lon="-1.12082">
        <ele>544.78</ele>
        <time>2021-08-03T18:14:14Z</time>
      </trkpt>
      <trkpt lat="42.25768" lon="-1.12103">
        <ele>544.83</ele>
        <time>2021-08-03T18:14:15Z</time>
      </trkpt>
      <trkpt lat="42.25758" lon="-1.12179">
        <ele>545.17</ele>
        <time>2021-08-03T18:14:19Z</time>
      </trkpt>
      <trkpt lat="42.25723" lon="-1.12242">
        <ele>545.47</ele>
        <time>2021-08-03T18:14:24Z</time>
      </trkpt>
      <trkpt lat="42.2561" lon="-1.12315">
        <ele>548.65</ele>
        <time>2021-08-03T18:14:32Z</time>
      </trkpt>
      <trkpt lat="42.25568" lon="-1.1234">
        <ele>552.26</ele>
        <time>2021-08-03T18:14:35Z</time>
      </trkpt>
      <trkpt lat="42.25509" lon="-1.1242">
        <ele>556.46</ele>
        <time>2021-08-03T18:14:41Z</time>
      </trkpt>
      <trkpt lat="42.25502" lon="-1.12456">
        <ele>557.38</ele>
        <time>2021-08-03T18:14:43Z</time>
      </trkpt>
      <trkpt lat="42.25484" lon="-1.12601">
        <ele>559.58</ele>
        <time>2021-08-03T18:14:51Z</time>
      </trkpt>
      <trkpt lat="42.25448" lon="-1.12633">
        <ele>558.35</ele>
        <time>2021-08-03T18:14:56Z</time>
      </trkpt>
      <trkpt lat="42.25432" lon="-1.12638">
        <ele>557.35</ele>
        <time>2021-08-03T18:14:58Z</time>
      </trkpt>
      <trkpt lat="42.2542" lon="-1.12643">
        <ele>555.88</ele>
        <time>2021-08-03T18:15:00Z</time>
      </trkpt>
      <trkpt lat="42.25406" lon="-1.12657">
        <ele>552.05</ele>
        <time>2021-08-03T18:15:04Z</time>
      </trkpt>
      <trkpt lat="42.25401" lon="-1.12665">
        <ele>550.47</ele>
        <time>2021-08-03T18:15:06Z</time>
      </trkpt>
      <trkpt lat="42.25391" lon="-1.12689">
        <ele>548.01</ele>
        <time>2021-08-03T18:15:10Z</time>
      </trkpt>
      <trkpt lat="42.25387" lon="-1.12725">
        <ele>544.26</ele>
        <time>2021-08-03T18:15:19Z</time>
      </trkpt>
      <trkpt lat="42.25383" lon="-1.12789">
        <ele>542.59</ele>
        <time>2021-08-03T18:15:27Z</time>
      </trkpt>
      <trkpt lat="42.25395" lon="-1.12879">
        <ele>539.55</ele>
        <time>2021-08-03T18:15:37Z</time>
      </trkpt>
      <trkpt lat="42.25409" lon="-1.1295">
        <ele>536.32</ele>
        <time>2021-08-03T18:15:45Z</time>
      </trkpt>
      <trkpt lat="42.25417" lon="-1.13">
        <ele>532.95</ele>
        <time>2021-08-03T18:15:53Z</time>
      </trkpt>
      <trkpt lat="42.2542" lon="-1.13023">
        <ele>530.84</ele>
        <time>2021-08-03T18:16:03Z</time>
      </trkpt>
      <trkpt lat="42.25419" lon="-1.13074">
        <ele>530.46</ele>
        <time>2021-08-03T18:16:13Z</time>
      </trkpt>
      <trkpt lat="42.25414" lon="-1.13148">
        <ele>531.23</ele>
        <time>2021-08-03T18:16:23Z</time>
      </trkpt>
      <trkpt lat="42.25392" lon="-1.13285">
        <ele>532.4</ele>
        <time>2021-08-03T18:16:31Z</time>
      </trkpt>
      <trkpt lat="42.25384" lon="-1.13328">
        <ele>532.66</ele>
        <time>2021-08-03T18:16:33Z</time>
      </trkpt>
      <trkpt lat="42.25337" lon="-1.13398">
        <ele>532.64</ele>
        <time>2021-08-03T18:16:38Z</time>
      </trkpt>
      <trkpt lat="42.25293" lon="-1.13428">
        <ele>532.61</ele>
        <time>2021-08-03T18:16:41Z</time>
      </trkpt>
      <trkpt lat="42.25255" lon="-1.13481">
        <ele>533.51</ele>
        <time>2021-08-03T18:16:45Z</time>
      </trkpt>
      <trkpt lat="42.25203" lon="-1.1358">
        <ele>537.69</ele>
        <time>2021-08-03T18:16:51Z</time>
      </trkpt>
      <trkpt lat="42.25175" lon="-1.13629">
        <ele>539.49</ele>
        <time>2021-08-03T18:16:54Z</time>
      </trkpt>
      <trkpt lat="42.25125" lon="-1.13675">
        <ele>540.39</ele>
        <time>2021-08-03T18:16:58Z</time>
      </trkpt>
      <trkpt lat="42.2509" lon="-1.137">
        <ele>540.3</ele>
        <time>2021-08-03T18:17:01Z</time>
      </trkpt>
      <trkpt lat="42.25079" lon="-1.13746">
        <ele>538.32</ele>
        <time>2021-08-03T18:17:05Z</time>
      </trkpt>
      <trkpt lat="42.25085" lon="-1.13777">
        <ele>537.06</ele>
        <time>2021-08-03T18:17:07Z</time>
      </trkpt>
      <trkpt lat="42.25084" lon="-1.1393">
        <ele>534.94</ele>
        <time>2021-08-03T18:17:15Z</time>
      </trkpt>
      <trkpt lat="42.25069" lon="-1.14">
        <ele>533.94</ele>
        <time>2021-08-03T18:17:19Z</time>
      </trkpt>
      <trkpt lat="42.25072" lon="-1.14108">
        <ele>533.97</ele>
        <time>2021-08-03T18:17:25Z</time>
      </trkpt>
      <trkpt lat="42.25078" lon="-1.14179">
        <ele>535.13</ele>
        <time>2021-08-03T18:17:31Z</time>
      </trkpt>
      <trkpt lat="42.25077" lon="-1.14185">
        <ele>535.42</ele>
        <time>2021-08-03T18:17:38Z</time>
      </trkpt>
      <trkpt lat="42.25078" lon="-1.14186">
        <ele>535.74</ele>
        <time>2021-08-03T18:18:13Z</time>
      </trkpt>
      <trkpt lat="42.25079" lon="-1.1419">
        <ele>536.02</ele>
        <time>2021-08-03T18:18:48Z</time>
      </trkpt>
      <trkpt lat="42.25089" lon="-1.14274">
        <ele>535.88</ele>
        <time>2021-08-03T18:18:55Z</time>
      </trkpt>
      <trkpt lat="42.25104" lon="-1.14455">
        <ele>532.73</ele>
        <time>2021-08-03T18:19:06Z</time>
      </trkpt>
      <trkpt lat="42.25114" lon="-1.14597">
        <ele>531.49</ele>
        <time>2021-08-03T18:19:17Z</time>
      </trkpt>
      <trkpt lat="42.25157" lon="-1.14687">
        <ele>528.09</ele>
        <time>2021-08-03T18:19:25Z</time>
      </trkpt>
      <trkpt lat="42.25179" lon="-1.14724">
        <ele>524.79</ele>
        <time>2021-08-03T18:19:30Z</time>
      </trkpt>
      <trkpt lat="42.25249" lon="-1.14838">
        <ele>522.62</ele>
        <time>2021-08-03T18:19:44Z</time>
      </trkpt>
      <trkpt lat="42.25312" lon="-1.14894">
        <ele>524.17</ele>
        <time>2021-08-03T18:19:52Z</time>
      </trkpt>
      <trkpt lat="42.25407" lon="-1.15055">
        <ele>526.32</ele>
        <time>2021-08-03T18:20:02Z</time>
      </trkpt>
      <trkpt lat="42.25478" lon="-1.15214">
        <ele>527.29</ele>
        <time>2021-08-03T18:20:09Z</time>
      </trkpt>
      <trkpt lat="42.25558" lon="-1.15411">
        <ele>527.76</ele>
        <time>2021-08-03T18:20:18Z</time>
      </trkpt>
      <trkpt lat="42.25577" lon="-1.1546">
        <ele>527.84</ele>
        <time>2021-08-03T18:20:21Z</time>
      </trkpt>
      <trkpt lat="42.25578" lon="-1.15475">
        <ele>527.86</ele>
        <time>2021-08-03T18:20:22Z</time>
      </trkpt>
      <trkpt lat="42.25575" lon="-1.15488">
        <ele>527.93</ele>
        <time>2021-08-03T18:20:23Z</time>
      </trkpt>
      <trkpt lat="42.25558" lon="-1.15533">
        <ele>528.38</ele>
        <time>2021-08-03T18:20:26Z</time>
      </trkpt>
      <trkpt lat="42.25526" lon="-1.15686">
        <ele>532.01</ele>
        <time>2021-08-03T18:20:35Z</time>
      </trkpt>
      <trkpt lat="42.25517" lon="-1.15754">
        <ele>535.25</ele>
        <time>2021-08-03T18:20:40Z</time>
      </trkpt>
      <trkpt lat="42.25504" lon="-1.15836">
        <ele>538.53</ele>
        <time>2021-08-03T18:20:46Z</time>
      </trkpt>
      <trkpt lat="42.25493" lon="-1.15908">
        <ele>538.93</ele>
        <time>2021-08-03T18:20:53Z</time>
      </trkpt>
      <trkpt lat="42.25491" lon="-1.15919">
        <ele>538.32</ele>
        <time>2021-08-03T18:20:55Z</time>
      </trkpt>
      <trkpt lat="42.25501" lon="-1.15998">
        <ele>536.41</ele>
        <time>2021-08-03T18:21:01Z</time>
      </trkpt>
      <trkpt lat="42.25543" lon="-1.1619">
        <ele>532.83</ele>
        <time>2021-08-03T18:21:10Z</time>
      </trkpt>
      <trkpt lat="42.25561" lon="-1.16236">
        <ele>531.81</ele>
        <time>2021-08-03T18:21:13Z</time>
      </trkpt>
      <trkpt lat="42.25553" lon="-1.16309">
        <ele>529.75</ele>
        <time>2021-08-03T18:21:18Z</time>
      </trkpt>
      <trkpt lat="42.25504" lon="-1.1648">
        <ele>526.27</ele>
        <time>2021-08-03T18:21:26Z</time>
      </trkpt>
      <trkpt lat="42.25484" lon="-1.16577">
        <ele>525.55</ele>
        <time>2021-08-03T18:21:30Z</time>
      </trkpt>
      <trkpt lat="42.25465" lon="-1.1663">
        <ele>525.51</ele>
        <time>2021-08-03T18:21:33Z</time>
      </trkpt>
      <trkpt lat="42.25482" lon="-1.1668">
        <ele>528.03</ele>
        <time>2021-08-03T18:21:38Z</time>
      </trkpt>
      <trkpt lat="42.25547" lon="-1.1674">
        <ele>532.41</ele>
        <time>2021-08-03T18:21:44Z</time>
      </trkpt>
      <trkpt lat="42.25573" lon="-1.16765">
        <ele>533.71</ele>
        <time>2021-08-03T18:21:46Z</time>
      </trkpt>
      <trkpt lat="42.25626" lon="-1.16864">
        <ele>536.68</ele>
        <time>2021-08-03T18:21:52Z</time>
      </trkpt>
      <trkpt lat="42.25723" lon="-1.17076">
        <ele>538.38</ele>
        <time>2021-08-03T18:22:02Z</time>
      </trkpt>
      <trkpt lat="42.2582" lon="-1.17292">
        <ele>541.53</ele>
        <time>2021-08-03T18:22:12Z</time>
      </trkpt>
      <trkpt lat="42.25855" lon="-1.17474">
        <ele>544.7</ele>
        <time>2021-08-03T18:22:20Z</time>
      </trkpt>
      <trkpt lat="42.25878" lon="-1.17599">
        <ele>548.4</ele>
        <time>2021-08-03T18:22:26Z</time>
      </trkpt>
      <trkpt lat="42.25903" lon="-1.17644">
        <ele>551.54</ele>
        <time>2021-08-03T18:22:30Z</time>
      </trkpt>
      <trkpt lat="42.2596" lon="-1.177">
        <ele>555.68</ele>
        <time>2021-08-03T18:22:36Z</time>
      </trkpt>
      <trkpt lat="42.25994" lon="-1.17756">
        <ele>559.45</ele>
        <time>2021-08-03T18:22:42Z</time>
      </trkpt>
      <trkpt lat="42.26004" lon="-1.17783">
        <ele>559.68</ele>
        <time>2021-08-03T18:22:48Z</time>
      </trkpt>
      <trkpt lat="42.26021" lon="-1.17896">
        <ele>558.77</ele>
        <time>2021-08-03T18:22:58Z</time>
      </trkpt>
      <trkpt lat="42.26023" lon="-1.17915">
        <ele>558.59</ele>
        <time>2021-08-03T18:23:00Z</time>
      </trkpt>
      <trkpt lat="42.26027" lon="-1.17985">
        <ele>558.26</ele>
        <time>2021-08-03T18:23:05Z</time>
      </trkpt>
      <trkpt lat="42.26051" lon="-1.18066">
        <ele>558.26</ele>
        <time>2021-08-03T18:23:10Z</time>
      </trkpt>
      <trkpt lat="42.26062" lon="-1.18172">
        <ele>557.96</ele>
        <time>2021-08-03T18:23:16Z</time>
      </trkpt>
      <trkpt lat="42.26054" lon="-1.18224">
        <ele>557.47</ele>
        <time>2021-08-03T18:23:19Z</time>
      </trkpt>
      <trkpt lat="42.2608" lon="-1.18305">
        <ele>555.16</ele>
        <time>2021-08-03T18:23:25Z</time>
      </trkpt>
      <trkpt lat="42.26101" lon="-1.18321">
        <ele>554.05</ele>
        <time>2021-08-03T18:23:27Z</time>
      </trkpt>
      <trkpt lat="42.26125" lon="-1.18367">
        <ele>551.09</ele>
        <time>2021-08-03T18:23:31Z</time>
      </trkpt>
      <trkpt lat="42.26142" lon="-1.18435">
        <ele>547.64</ele>
        <time>2021-08-03T18:23:36Z</time>
      </trkpt>
      <trkpt lat="42.26166" lon="-1.18494">
        <ele>545.48</ele>
        <time>2021-08-03T18:23:42Z</time>
      </trkpt>
      <trkpt lat="42.26206" lon="-1.1853">
        <ele>545.54</ele>
        <time>2021-08-03T18:23:49Z</time>
      </trkpt>
      <trkpt lat="42.26219" lon="-1.18549">
        <ele>545.63</ele>
        <time>2021-08-03T18:23:52Z</time>
      </trkpt>
      <trkpt lat="42.26239" lon="-1.18581">
        <ele>544.83</ele>
        <time>2021-08-03T18:24:00Z</time>
      </trkpt>
      <trkpt lat="42.26248" lon="-1.18599">
        <ele>544.69</ele>
        <time>2021-08-03T18:24:03Z</time>
      </trkpt>
      <trkpt lat="42.26264" lon="-1.18638">
        <ele>546.14</ele>
        <time>2021-08-03T18:24:12Z</time>
      </trkpt>
      <trkpt lat="42.26271" lon="-1.18658">
        <ele>546.68</ele>
        <time>2021-08-03T18:24:19Z</time>
      </trkpt>
      <trkpt lat="42.26268" lon="-1.18688">
        <ele>545.67</ele>
        <time>2021-08-03T18:24:27Z</time>
      </trkpt>
      <trkpt lat="42.26278" lon="-1.18696">
        <ele>544.19</ele>
        <time>2021-08-03T18:24:53Z</time>
      </trkpt>
      <trkpt lat="42.26308" lon="-1.18699">
        <ele>544.58</ele>
        <time>2021-08-03T18:25:03Z</time>
      </trkpt>
      <trkpt lat="42.2633" lon="-1.18688">
        <ele>544.67</ele>
        <time>2021-08-03T18:25:07Z</time>
      </trkpt>
      <trkpt lat="42.26404" lon="-1.18647">
        <ele>543.83</ele>
        <time>2021-08-03T18:25:18Z</time>
      </trkpt>
      <trkpt lat="42.26491" lon="-1.18638">
        <ele>542.13</ele>
        <time>2021-08-03T18:25:29Z</time>
      </trkpt>
      <trkpt lat="42.2649" lon="-1.18639">
        <ele>539.84</ele>
        <time>2021-08-03T18:25:38Z</time>
      </trkpt>
      <trkpt lat="42.26491" lon="-1.18639">
        <ele>539.45</ele>
        <time>2021-08-03T18:25:44Z</time>
      </trkpt>
      <trkpt lat="42.26484" lon="-1.1866">
        <ele>539</ele>
        <time>2021-08-03T18:25:51Z</time>
      </trkpt>
      <trkpt lat="42.26469" lon="-1.18668">
        <ele>539.01</ele>
        <time>2021-08-03T18:25:53Z</time>
      </trkpt>
      <trkpt lat="42.26409" lon="-1.18705">
        <ele>538.89</ele>
        <time>2021-08-03T18:26:00Z</time>
      </trkpt>
      <trkpt lat="42.26391" lon="-1.18753">
        <ele>538.53</ele>
        <time>2021-08-03T18:26:05Z</time>
      </trkpt>
      <trkpt lat="42.26371" lon="-1.18814">
        <ele>538.43</ele>
        <time>2021-08-03T18:26:10Z</time>
      </trkpt>
      <trkpt lat="42.26267" lon="-1.18937">
        <ele>536.59</ele>
        <time>2021-08-03T18:26:23Z</time>
      </trkpt>
      <trkpt lat="42.26245" lon="-1.18953">
        <ele>535.56</ele>
        <time>2021-08-03T18:26:26Z</time>
      </trkpt>
      <trkpt lat="42.26237" lon="-1.18998">
        <ele>533.05</ele>
        <time>2021-08-03T18:26:32Z</time>
      </trkpt>
      <trkpt lat="42.26235" lon="-1.19064">
        <ele>531.38</ele>
        <time>2021-08-03T18:26:38Z</time>
      </trkpt>
      <trkpt lat="42.26214" lon="-1.19136">
        <ele>530.6</ele>
        <time>2021-08-03T18:26:44Z</time>
      </trkpt>
      <trkpt lat="42.26206" lon="-1.19198">
        <ele>529.91</ele>
        <time>2021-08-03T18:26:53Z</time>
      </trkpt>
      <trkpt lat="42.26199" lon="-1.19249">
        <ele>529.75</ele>
        <time>2021-08-03T18:27:01Z</time>
      </trkpt>
      <trkpt lat="42.26179" lon="-1.19384">
        <ele>531.05</ele>
        <time>2021-08-03T18:27:10Z</time>
      </trkpt>
      <trkpt lat="42.26165" lon="-1.19451">
        <ele>532.68</ele>
        <time>2021-08-03T18:27:16Z</time>
      </trkpt>
      <trkpt lat="42.26168" lon="-1.19484">
        <ele>533.72</ele>
        <time>2021-08-03T18:27:20Z</time>
      </trkpt>
      <trkpt lat="42.26183" lon="-1.1957">
        <ele>535.4</ele>
        <time>2021-08-03T18:27:28Z</time>
      </trkpt>
      <trkpt lat="42.26174" lon="-1.19649">
        <ele>538.6</ele>
        <time>2021-08-03T18:27:35Z</time>
      </trkpt>
      <trkpt lat="42.26172" lon="-1.19652">
        <ele>539.23</ele>
        <time>2021-08-03T18:27:36Z</time>
      </trkpt>
      <trkpt lat="42.26169" lon="-1.19662">
        <ele>541.76</ele>
        <time>2021-08-03T18:27:41Z</time>
      </trkpt>
      <trkpt lat="42.26179" lon="-1.19676">
        <ele>543.21</ele>
        <time>2021-08-03T18:27:45Z</time>
      </trkpt>
      <trkpt lat="42.26224" lon="-1.19713">
        <ele>545.74</ele>
        <time>2021-08-03T18:27:55Z</time>
      </trkpt>
      <trkpt lat="42.26246" lon="-1.19699">
        <ele>546.5</ele>
        <time>2021-08-03T18:28:00Z</time>
      </trkpt>
      <trkpt lat="42.26299" lon="-1.19611">
        <ele>547.72</ele>
        <time>2021-08-03T18:28:14Z</time>
      </trkpt>
      <trkpt lat="42.26357" lon="-1.19525">
        <ele>548.37</ele>
        <time>2021-08-03T18:28:28Z</time>
      </trkpt>
      <trkpt lat="42.26456" lon="-1.19456">
        <ele>549.49</ele>
        <time>2021-08-03T18:28:43Z</time>
      </trkpt>
      <trkpt lat="42.26486" lon="-1.19436">
        <ele>550.05</ele>
        <time>2021-08-03T18:28:46Z</time>
      </trkpt>
      <trkpt lat="42.26578" lon="-1.19424">
        <ele>551.87</ele>
        <time>2021-08-03T18:28:53Z</time>
      </trkpt>
      <trkpt lat="42.26707" lon="-1.19421">
        <ele>554.16</ele>
        <time>2021-08-03T18:29:02Z</time>
      </trkpt>
      <trkpt lat="42.26748" lon="-1.19441">
        <ele>554.56</ele>
        <time>2021-08-03T18:29:06Z</time>
      </trkpt>
      <trkpt lat="42.26856" lon="-1.1954">
        <ele>556.12</ele>
        <time>2021-08-03T18:29:15Z</time>
      </trkpt>
      <trkpt lat="42.26955" lon="-1.1958">
        <ele>557.09</ele>
        <time>2021-08-03T18:29:23Z</time>
      </trkpt>
      <trkpt lat="42.26968" lon="-1.19583">
        <ele>557.24</ele>
        <time>2021-08-03T18:29:24Z</time>
      </trkpt>
      <trkpt lat="42.2704" lon="-1.1962">
        <ele>557.18</ele>
        <time>2021-08-03T18:29:32Z</time>
      </trkpt>
      <trkpt lat="42.27124" lon="-1.1966">
        <ele>556.83</ele>
        <time>2021-08-03T18:29:41Z</time>
      </trkpt>
      <trkpt lat="42.27178" lon="-1.19744">
        <ele>557.25</ele>
        <time>2021-08-03T18:29:49Z</time>
      </trkpt>
      <trkpt lat="42.27221" lon="-1.19802">
        <ele>557.52</ele>
        <time>2021-08-03T18:29:56Z</time>
      </trkpt>
      <trkpt lat="42.27271" lon="-1.19854">
        <ele>556.63</ele>
        <time>2021-08-03T18:30:09Z</time>
      </trkpt>
      <trkpt lat="42.27316" lon="-1.19903">
        <ele>556.05</ele>
        <time>2021-08-03T18:30:27Z</time>
      </trkpt>
      <trkpt lat="42.27364" lon="-1.19952">
        <ele>556.54</ele>
        <time>2021-08-03T18:30:36Z</time>
      </trkpt>
      <trkpt lat="42.2745" lon="-1.2004">
        <ele>558.81</ele>
        <time>2021-08-03T18:30:44Z</time>
      </trkpt>
      <trkpt lat="42.27474" lon="-1.20065">
        <ele>559.66</ele>
        <time>2021-08-03T18:30:46Z</time>
      </trkpt>
      <trkpt lat="42.27537" lon="-1.20177">
        <ele>563.39</ele>
        <time>2021-08-03T18:30:53Z</time>
      </trkpt>
      <trkpt lat="42.27594" lon="-1.20246">
        <ele>564.62</ele>
        <time>2021-08-03T18:30:59Z</time>
      </trkpt>
      <trkpt lat="42.27669" lon="-1.20333">
        <ele>563.71</ele>
        <time>2021-08-03T18:31:08Z</time>
      </trkpt>
      <trkpt lat="42.27809" lon="-1.20466">
        <ele>567.03</ele>
        <time>2021-08-03T18:31:21Z</time>
      </trkpt>
      <trkpt lat="42.2791" lon="-1.20557">
        <ele>570.39</ele>
        <time>2021-08-03T18:31:30Z</time>
      </trkpt>
      <trkpt lat="42.2799" lon="-1.20645">
        <ele>573.4</ele>
        <time>2021-08-03T18:31:37Z</time>
      </trkpt>
      <trkpt lat="42.28024" lon="-1.20685">
        <ele>574.54</ele>
        <time>2021-08-03T18:31:40Z</time>
      </trkpt>
      <trkpt lat="42.28093" lon="-1.20809">
        <ele>578.2</ele>
        <time>2021-08-03T18:31:48Z</time>
      </trkpt>
      <trkpt lat="42.28143" lon="-1.20892">
        <ele>581.3</ele>
        <time>2021-08-03T18:31:54Z</time>
      </trkpt>
      <trkpt lat="42.28152" lon="-1.20905">
        <ele>581.61</ele>
        <time>2021-08-03T18:31:55Z</time>
      </trkpt>
      <trkpt lat="42.2824" lon="-1.2097">
        <ele>582.66</ele>
        <time>2021-08-03T18:32:02Z</time>
      </trkpt>
      <trkpt lat="42.28383" lon="-1.21057">
        <ele>584.2</ele>
        <time>2021-08-03T18:32:13Z</time>
      </trkpt>
      <trkpt lat="42.28484" lon="-1.21122">
        <ele>585.92</ele>
        <time>2021-08-03T18:32:21Z</time>
      </trkpt>
      <trkpt lat="42.28533" lon="-1.21212">
        <ele>587.98</ele>
        <time>2021-08-03T18:32:28Z</time>
      </trkpt>
      <trkpt lat="42.28571" lon="-1.21232">
        <ele>588.02</ele>
        <time>2021-08-03T18:32:33Z</time>
      </trkpt>
      <trkpt lat="42.28595" lon="-1.21248">
        <ele>587.08</ele>
        <time>2021-08-03T18:32:38Z</time>
      </trkpt>
      <trkpt lat="42.28595" lon="-1.2127">
        <ele>586.66</ele>
        <time>2021-08-03T18:32:40Z</time>
      </trkpt>
      <trkpt lat="42.28585" lon="-1.21372">
        <ele>583.33</ele>
        <time>2021-08-03T18:32:47Z</time>
      </trkpt>
      <trkpt lat="42.28577" lon="-1.21459">
        <ele>580.23</ele>
        <time>2021-08-03T18:32:53Z</time>
      </trkpt>
      <trkpt lat="42.28566" lon="-1.21556">
        <ele>576.99</ele>
        <time>2021-08-03T18:33:01Z</time>
      </trkpt>
      <trkpt lat="42.28568" lon="-1.21584">
        <ele>574.76</ele>
        <time>2021-08-03T18:33:08Z</time>
      </trkpt>
      <trkpt lat="42.28566" lon="-1.21602">
        <ele>573.69</ele>
        <time>2021-08-03T18:33:19Z</time>
      </trkpt>
      <trkpt lat="42.28561" lon="-1.21647">
        <ele>573.79</ele>
        <time>2021-08-03T18:33:24Z</time>
      </trkpt>
      <trkpt lat="42.28577" lon="-1.21746">
        <ele>574.21</ele>
        <time>2021-08-03T18:33:32Z</time>
      </trkpt>
      <trkpt lat="42.2858" lon="-1.21793">
        <ele>574.17</ele>
        <time>2021-08-03T18:33:35Z</time>
      </trkpt>
      <trkpt lat="42.28597" lon="-1.21867">
        <ele>573.23</ele>
        <time>2021-08-03T18:33:40Z</time>
      </trkpt>
      <trkpt lat="42.28619" lon="-1.21936">
        <ele>572.01</ele>
        <time>2021-08-03T18:33:45Z</time>
      </trkpt>
      <trkpt lat="42.28645" lon="-1.21974">
        <ele>571.3</ele>
        <time>2021-08-03T18:33:49Z</time>
      </trkpt>
      <trkpt lat="42.28662" lon="-1.21987">
        <ele>570.93</ele>
        <time>2021-08-03T18:33:51Z</time>
      </trkpt>
      <trkpt lat="42.28737" lon="-1.21989">
        <ele>570.33</ele>
        <time>2021-08-03T18:33:59Z</time>
      </trkpt>
      <trkpt lat="42.2876" lon="-1.21983">
        <ele>570.54</ele>
        <time>2021-08-03T18:34:02Z</time>
      </trkpt>
      <trkpt lat="42.28772" lon="-1.21985">
        <ele>571.08</ele>
        <time>2021-08-03T18:34:06Z</time>
      </trkpt>
      <trkpt lat="42.28775" lon="-1.21987">
        <ele>572.26</ele>
        <time>2021-08-03T18:34:27Z</time>
      </trkpt>
      <trkpt lat="42.28778" lon="-1.21994">
        <ele>572.27</ele>
        <time>2021-08-03T18:37:11Z</time>
      </trkpt>
      <trkpt lat="42.28783" lon="-1.22006">
        <ele>572.27</ele>
        <time>2021-08-03T18:37:13Z</time>
      </trkpt>
      <trkpt lat="42.28791" lon="-1.22024">
        <ele>572.24</ele>
        <time>2021-08-03T18:37:15Z</time>
      </trkpt>
      <trkpt lat="42.28783" lon="-1.22086">
        <ele>571.1</ele>
        <time>2021-08-03T18:37:21Z</time>
      </trkpt>
      <trkpt lat="42.28791" lon="-1.2211">
        <ele>569.75</ele>
        <time>2021-08-03T18:37:26Z</time>
      </trkpt>
      <trkpt lat="42.28797" lon="-1.2211">
        <ele>569.45</ele>
        <time>2021-08-03T18:37:27Z</time>
      </trkpt>
      <trkpt lat="42.28815" lon="-1.22109">
        <ele>568.75</ele>
        <time>2021-08-03T18:37:30Z</time>
      </trkpt>
      <trkpt lat="42.28835" lon="-1.22116">
        <ele>568.24</ele>
        <time>2021-08-03T18:37:33Z</time>
      </trkpt>
      <trkpt lat="42.28882" lon="-1.22125">
        <ele>565.66</ele>
        <time>2021-08-03T18:37:41Z</time>
      </trkpt>
      <trkpt lat="42.28892" lon="-1.22126">
        <ele>563.47</ele>
        <time>2021-08-03T18:37:53Z</time>
      </trkpt>
      <trkpt lat="42.28926" lon="-1.22137">
        <ele>563.48</ele>
        <time>2021-08-03T18:37:57Z</time>
      </trkpt>
      <trkpt lat="42.2898" lon="-1.22191">
        <ele>563.19</ele>
        <time>2021-08-03T18:38:04Z</time>
      </trkpt>
      <trkpt lat="42.29014" lon="-1.22204">
        <ele>561.77</ele>
        <time>2021-08-03T18:38:10Z</time>
      </trkpt>
      <trkpt lat="42.29025" lon="-1.22222">
        <ele>559.48</ele>
        <time>2021-08-03T18:38:18Z</time>
      </trkpt>
      <trkpt lat="42.29032" lon="-1.22233">
        <ele>559.12</ele>
        <time>2021-08-03T18:38:20Z</time>
      </trkpt>
      <trkpt lat="42.29044" lon="-1.22262">
        <ele>558.45</ele>
        <time>2021-08-03T18:38:24Z</time>
      </trkpt>
      <trkpt lat="42.29051" lon="-1.223">
        <ele>556.58</ele>
        <time>2021-08-03T18:38:32Z</time>
      </trkpt>
      <trkpt lat="42.29068" lon="-1.2241">
        <ele>554.38</ele>
        <time>2021-08-03T18:38:43Z</time>
      </trkpt>
      <trkpt lat="42.29089" lon="-1.22553">
        <ele>552.54</ele>
        <time>2021-08-03T18:38:54Z</time>
      </trkpt>
      <trkpt lat="42.29105" lon="-1.22648">
        <ele>551.41</ele>
        <time>2021-08-03T18:39:01Z</time>
      </trkpt>
      <trkpt lat="42.29118" lon="-1.22687">
        <ele>548.35</ele>
        <time>2021-08-03T18:39:11Z</time>
      </trkpt>
      <trkpt lat="42.29148" lon="-1.22765">
        <ele>546.61</ele>
        <time>2021-08-03T18:39:25Z</time>
      </trkpt>
      <trkpt lat="42.29157" lon="-1.22791">
        <ele>546.34</ele>
        <time>2021-08-03T18:39:28Z</time>
      </trkpt>
      <trkpt lat="42.29162" lon="-1.22822">
        <ele>546.3</ele>
        <time>2021-08-03T18:39:31Z</time>
      </trkpt>
      <trkpt lat="42.29163" lon="-1.22898">
        <ele>545.59</ele>
        <time>2021-08-03T18:39:41Z</time>
      </trkpt>
      <trkpt lat="42.29167" lon="-1.23">
        <ele>545.46</ele>
        <time>2021-08-03T18:39:51Z</time>
      </trkpt>
      <trkpt lat="42.29167" lon="-1.23064">
        <ele>545.4</ele>
        <time>2021-08-03T18:39:57Z</time>
      </trkpt>
      <trkpt lat="42.29175" lon="-1.23142">
        <ele>545.15</ele>
        <time>2021-08-03T18:40:05Z</time>
      </trkpt>
      <trkpt lat="42.2919" lon="-1.23216">
        <ele>544.76</ele>
        <time>2021-08-03T18:40:13Z</time>
      </trkpt>
      <trkpt lat="42.29191" lon="-1.23274">
        <ele>544.68</ele>
        <time>2021-08-03T18:40:19Z</time>
      </trkpt>
      <trkpt lat="42.29216" lon="-1.23355">
        <ele>544.45</ele>
        <time>2021-08-03T18:40:29Z</time>
      </trkpt>
      <trkpt lat="42.29234" lon="-1.23423">
        <ele>544.33</ele>
        <time>2021-08-03T18:40:40Z</time>
      </trkpt>
      <trkpt lat="42.29243" lon="-1.2347">
        <ele>544.38</ele>
        <time>2021-08-03T18:40:50Z</time>
      </trkpt>
      <trkpt lat="42.2926" lon="-1.23544">
        <ele>545.24</ele>
        <time>2021-08-03T18:41:00Z</time>
      </trkpt>
      <trkpt lat="42.29273" lon="-1.236">
        <ele>545.78</ele>
        <time>2021-08-03T18:41:04Z</time>
      </trkpt>
      <trkpt lat="42.29311" lon="-1.23676">
        <ele>546.8</ele>
        <time>2021-08-03T18:41:09Z</time>
      </trkpt>
      <trkpt lat="42.29339" lon="-1.2372">
        <ele>547.19</ele>
        <time>2021-08-03T18:41:13Z</time>
      </trkpt>
      <trkpt lat="42.2934" lon="-1.23801">
        <ele>547.26</ele>
        <time>2021-08-03T18:41:19Z</time>
      </trkpt>
      <trkpt lat="42.29331" lon="-1.23839">
        <ele>547.24</ele>
        <time>2021-08-03T18:41:21Z</time>
      </trkpt>
      <trkpt lat="42.29334" lon="-1.23934">
        <ele>547.34</ele>
        <time>2021-08-03T18:41:26Z</time>
      </trkpt>
      <trkpt lat="42.2935" lon="-1.24047">
        <ele>547.03</ele>
        <time>2021-08-03T18:41:33Z</time>
      </trkpt>
      <trkpt lat="42.29354" lon="-1.24066">
        <ele>546.58</ele>
        <time>2021-08-03T18:41:35Z</time>
      </trkpt>
      <trkpt lat="42.29379" lon="-1.24147">
        <ele>543.04</ele>
        <time>2021-08-03T18:41:45Z</time>
      </trkpt>
      <trkpt lat="42.29382" lon="-1.24156">
        <ele>542.63</ele>
        <time>2021-08-03T18:41:46Z</time>
      </trkpt>
      <trkpt lat="42.29431" lon="-1.24228">
        <ele>540.3</ele>
        <time>2021-08-03T18:41:53Z</time>
      </trkpt>
      <trkpt lat="42.29441" lon="-1.24239">
        <ele>539.96</ele>
        <time>2021-08-03T18:41:54Z</time>
      </trkpt>
      <trkpt lat="42.29497" lon="-1.2433">
        <ele>538.56</ele>
        <time>2021-08-03T18:42:01Z</time>
      </trkpt>
      <trkpt lat="42.29524" lon="-1.24369">
        <ele>537.88</ele>
        <time>2021-08-03T18:42:06Z</time>
      </trkpt>
      <trkpt lat="42.29582" lon="-1.24412">
        <ele>536.86</ele>
        <time>2021-08-03T18:42:17Z</time>
      </trkpt>
      <trkpt lat="42.29589" lon="-1.24461">
        <ele>537.24</ele>
        <time>2021-08-03T18:42:24Z</time>
      </trkpt>
      <trkpt lat="42.29589" lon="-1.24474">
        <ele>537.31</ele>
        <time>2021-08-03T18:42:25Z</time>
      </trkpt>
      <trkpt lat="42.29594" lon="-1.24529">
        <ele>537.54</ele>
        <time>2021-08-03T18:42:29Z</time>
      </trkpt>
      <trkpt lat="42.29612" lon="-1.24608">
        <ele>536.16</ele>
        <time>2021-08-03T18:42:37Z</time>
      </trkpt>
      <trkpt lat="42.29615" lon="-1.24625">
        <ele>534.14</ele>
        <time>2021-08-03T18:42:44Z</time>
      </trkpt>
      <trkpt lat="42.29616" lon="-1.24658">
        <ele>533.32</ele>
        <time>2021-08-03T18:42:56Z</time>
      </trkpt>
      <trkpt lat="42.29632" lon="-1.24717">
        <ele>533.22</ele>
        <time>2021-08-03T18:43:02Z</time>
      </trkpt>
      <trkpt lat="42.29624" lon="-1.24791">
        <ele>532.35</ele>
        <time>2021-08-03T18:43:08Z</time>
      </trkpt>
      <trkpt lat="42.29598" lon="-1.24859">
        <ele>530.51</ele>
        <time>2021-08-03T18:43:14Z</time>
      </trkpt>
      <trkpt lat="42.29607" lon="-1.24922">
        <ele>528.18</ele>
        <time>2021-08-03T18:43:21Z</time>
      </trkpt>
      <trkpt lat="42.29614" lon="-1.24933">
        <ele>526.16</ele>
        <time>2021-08-03T18:43:28Z</time>
      </trkpt>
      <trkpt lat="42.29603" lon="-1.24957">
        <ele>525.44</ele>
        <time>2021-08-03T18:43:32Z</time>
      </trkpt>
      <trkpt lat="42.29532" lon="-1.25065">
        <ele>525.34</ele>
        <time>2021-08-03T18:43:40Z</time>
      </trkpt>
      <trkpt lat="42.29432" lon="-1.25213">
        <ele>525.66</ele>
        <time>2021-08-03T18:43:47Z</time>
      </trkpt>
      <trkpt lat="42.2924" lon="-1.25511">
        <ele>523.02</ele>
        <time>2021-08-03T18:43:58Z</time>
      </trkpt>
      <trkpt lat="42.29085" lon="-1.25837">
        <ele>522.53</ele>
        <time>2021-08-03T18:44:08Z</time>
      </trkpt>
      <trkpt lat="42.29" lon="-1.25986">
        <ele>519.9</ele>
        <time>2021-08-03T18:44:14Z</time>
      </trkpt>
      <trkpt lat="42.28874" lon="-1.26138">
        <ele>516.63</ele>
        <time>2021-08-03T18:44:22Z</time>
      </trkpt>
      <trkpt lat="42.2873" lon="-1.26312">
        <ele>513.53</ele>
        <time>2021-08-03T18:44:32Z</time>
      </trkpt>
      <trkpt lat="42.28628" lon="-1.26432">
        <ele>511.13</ele>
        <time>2021-08-03T18:44:40Z</time>
      </trkpt>
      <trkpt lat="42.28528" lon="-1.26552">
        <ele>508.66</ele>
        <time>2021-08-03T18:44:49Z</time>
      </trkpt>
      <trkpt lat="42.28433" lon="-1.26666">
        <ele>506.05</ele>
        <time>2021-08-03T18:45:00Z</time>
      </trkpt>
      <trkpt lat="42.28368" lon="-1.26766">
        <ele>504.09</ele>
        <time>2021-08-03T18:45:10Z</time>
      </trkpt>
      <trkpt lat="42.2832" lon="-1.26846">
        <ele>501.87</ele>
        <time>2021-08-03T18:45:21Z</time>
      </trkpt>
      <trkpt lat="42.28271" lon="-1.26917">
        <ele>500.52</ele>
        <time>2021-08-03T18:45:32Z</time>
      </trkpt>
      <trkpt lat="42.28226" lon="-1.26981">
        <ele>499.86</ele>
        <time>2021-08-03T18:45:42Z</time>
      </trkpt>
      <trkpt lat="42.2819" lon="-1.27031">
        <ele>499.47</ele>
        <time>2021-08-03T18:45:53Z</time>
      </trkpt>
      <trkpt lat="42.28184" lon="-1.27051">
        <ele>499.31</ele>
        <time>2021-08-03T18:46:00Z</time>
      </trkpt>
      <trkpt lat="42.28223" lon="-1.27103">
        <ele>499.76</ele>
        <time>2021-08-03T18:46:11Z</time>
      </trkpt>
      <trkpt lat="42.28258" lon="-1.27151">
        <ele>500.08</ele>
        <time>2021-08-03T18:46:22Z</time>
      </trkpt>
      <trkpt lat="42.28255" lon="-1.27169">
        <ele>500.47</ele>
        <time>2021-08-03T18:46:28Z</time>
      </trkpt>
      <trkpt lat="42.28236" lon="-1.27195">
        <ele>500.6</ele>
        <time>2021-08-03T18:46:39Z</time>
      </trkpt>
      <trkpt lat="42.28228" lon="-1.2721">
        <ele>500.51</ele>
        <time>2021-08-03T18:46:50Z</time>
      </trkpt>
      <trkpt lat="42.2822" lon="-1.27215">
        <ele>500.52</ele>
        <time>2021-08-03T18:46:54Z</time>
      </trkpt>
      <trkpt lat="42.28224" lon="-1.27266">
        <ele>500.31</ele>
        <time>2021-08-03T18:47:07Z</time>
      </trkpt>
      <trkpt lat="42.2823" lon="-1.27315">
        <ele>499.66</ele>
        <time>2021-08-03T18:47:22Z</time>
      </trkpt>
      <trkpt lat="42.28222" lon="-1.2735">
        <ele>499.31</ele>
        <time>2021-08-03T18:47:38Z</time>
      </trkpt>
      <trkpt lat="42.28218" lon="-1.2736">
        <ele>498.88</ele>
        <time>2021-08-03T18:47:51Z</time>
      </trkpt>
      <trkpt lat="42.28218" lon="-1.27353">
        <ele>498.69</ele>
        <time>2021-08-03T18:47:59Z</time>
      </trkpt>
      <trkpt lat="42.28227" lon="-1.27346">
        <ele>498.94</ele>
        <time>2021-08-03T18:48:10Z</time>
      </trkpt>
      <trkpt lat="42.28229" lon="-1.2734">
        <ele>499</ele>
        <time>2021-08-03T18:48:14Z</time>
      </trkpt>
      <trkpt lat="42.28236" lon="-1.27316">
        <ele>499.25</ele>
        <time>2021-08-03T18:48:30Z</time>
      </trkpt>
      <trkpt lat="42.28231" lon="-1.27309">
        <ele>499.37</ele>
        <time>2021-08-03T18:48:51Z</time>
      </trkpt>
      <trkpt lat="42.28229" lon="-1.27345">
        <ele>499.3</ele>
        <time>2021-08-03T18:49:02Z</time>
      </trkpt>
      <trkpt lat="42.28226" lon="-1.27356">
        <ele>498.83</ele>
        <time>2021-08-03T18:49:13Z</time>
      </trkpt>
      <trkpt lat="42.28224" lon="-1.27348">
        <ele>498.69</ele>
        <time>2021-08-03T18:49:23Z</time>
      </trkpt>
      <trkpt lat="42.28218" lon="-1.27351">
        <ele>498.67</ele>
        <time>2021-08-03T18:49:41Z</time>
      </trkpt>
      <trkpt lat="42.28221" lon="-1.2735">
        <ele>498.6</ele>
        <time>2021-08-03T18:49:55Z</time>
      </trkpt>
      <trkpt lat="42.28222" lon="-1.2735">
        <ele>498.58</ele>
        <time>2021-08-03T18:49:56Z</time>
      </trkpt>
      <trkpt lat="42.28225" lon="-1.2735">
        <ele>498.52</ele>
        <time>2021-08-03T18:50:01Z</time>
      </trkpt>
      <trkpt lat="42.28228" lon="-1.27351">
        <ele>499.11</ele>
        <time>2021-08-03T18:50:23Z</time>
      </trkpt>
      <trkpt lat="42.28229" lon="-1.27351">
        <ele>499.15</ele>
        <time>2021-08-03T18:50:29Z</time>
      </trkpt>
      <trkpt lat="42.28196" lon="-1.27289">
        <ele>500.75</ele>
        <time>2021-08-03T18:51:01Z</time>
      </trkpt>
      <trkpt lat="42.2822" lon="-1.27347">
        <ele>500.75</ele>
        <time>2021-08-03T18:51:18Z</time>
      </trkpt>
    </trkseg>
  </trk>
</gpx>